sensor_id;sensor_type;location;lat;lon;timestamp;P1;durP1;ratioP1;P2;durP2;ratioP2
32242;SDS011;18731;42.830;24.390;2022-07-17T03:01:02;11.77;;;5.55;;
32242;SDS011;18731;42.830;24.390;2022-07-17T03:03:28;13.32;;;5.25;;
32242;SDS011;18731;42.830;24.390;2022-07-17T03:05:54;6.00;;;4.90;;
32242;SDS011;18731;42.830;24.390;2022-07-17T03:08:20;8.82;;;4.85;;
32242;SDS011;18731;42.830;24.390;2022-07-17T03:10:45;7.50;;;4.88;;
32242;SDS011;18731;42.830;24.390;2022-07-17T03:13:11;12.48;;;5.50;;
32242;SDS011;18731;42.830;24.390;2022-07-17T03:15:37;11.98;;;5.20;;
32242;SDS011;18731;42.830;24.390;2022-07-17T03:18:03;10.93;;;5.15;;
32242;SDS011;18731;42.830;24.390;2022-07-17T03:20:32;8.32;;;5.50;;
32242;SDS011;18731;42.830;24.390;2022-07-17T03:22:57;12.88;;;5.97;;
32242;SDS011;18731;42.830;24.390;2022-07-17T03:25:23;10.98;;;5.60;;
32242;SDS011;18731;42.830;24.390;2022-07-17T03:27:49;8.05;;;5.30;;
32242;SDS011;18731;42.830;24.390;2022-07-17T03:30:14;6.82;;;5.00;;
32242;SDS011;18731;42.830;24.390;2022-07-17T03:32:40;13.30;;;5.20;;
32242;SDS011;18731;42.830;24.390;2022-07-17T03:35:06;8.52;;;5.28;;
32242;SDS011;18731;42.830;24.390;2022-07-17T03:37:33;6.22;;;5.20;;
32242;SDS011;18731;42.830;24.390;2022-07-17T03:39:59;9.57;;;5.68;;
32242;SDS011;18731;42.830;24.390;2022-07-17T03:42:27;7.88;;;5.30;;
32242;SDS011;18731;42.830;24.390;2022-07-17T03:44:53;11.43;;;4.63;;
32242;SDS011;18731;42.830;24.390;2022-07-17T03:47:19;6.55;;;5.20;;
32242;SDS011;18731;42.830;24.390;2022-07-17T03:49:45;6.40;;;5.38;;
32242;SDS011;18731;42.830;24.390;2022-07-17T03:52:10;8.60;;;5.28;;
32242;SDS011;18731;42.830;24.390;2022-07-17T03:54:36;9.50;;;5.15;;
32242;SDS011;18731;42.830;24.390;2022-07-17T03:57:02;12.68;;;5.18;;
32242;SDS011;18731;42.830;24.390;2022-07-17T03:59:28;7.38;;;4.88;;
32242;SDS011;18731;42.830;24.390;2022-07-17T04:01:56;10.30;;;4.30;;
32242;SDS011;18731;42.830;24.390;2022-07-17T04:04:22;8.48;;;4.50;;
32242;SDS011;18731;42.830;24.390;2022-07-17T04:06:54;6.65;;;4.43;;
32242;SDS011;18731;42.830;24.390;2022-07-17T04:09:19;7.05;;;4.80;;
32242;SDS011;18731;42.830;24.390;2022-07-17T04:11:45;8.32;;;4.93;;
32242;SDS011;18731;42.830;24.390;2022-07-17T04:14:14;5.18;;;4.65;;
32242;SDS011;18731;42.830;24.390;2022-07-17T04:16:40;7.75;;;4.72;;
32242;SDS011;18731;42.830;24.390;2022-07-17T04:19:05;8.68;;;4.70;;
32242;SDS011;18731;42.830;24.390;2022-07-17T04:21:31;5.43;;;4.53;;
32242;SDS011;18731;42.830;24.390;2022-07-17T04:23:57;6.78;;;4.43;;
32242;SDS011;18731;42.830;24.390;2022-07-17T04:26:23;6.10;;;4.80;;
32242;SDS011;18731;42.830;24.390;2022-07-17T04:28:48;22.27;;;13.85;;
32242;SDS011;18731;42.830;24.390;2022-07-17T04:31:14;20.80;;;16.88;;
32242;SDS011;18731;42.830;24.390;2022-07-17T04:33:40;13.52;;;9.85;;
32242;SDS011;18731;42.830;24.390;2022-07-17T04:36:06;8.27;;;5.65;;
32242;SDS011;18731;42.830;24.390;2022-07-17T04:38:32;7.20;;;4.70;;
32242;SDS011;18731;42.830;24.390;2022-07-17T04:40:57;6.30;;;4.55;;
32242;SDS011;18731;42.830;24.390;2022-07-17T04:43:23;6.63;;;4.43;;
32242;SDS011;18731;42.830;24.390;2022-07-17T04:45:49;5.43;;;4.10;;
32242;SDS011;18731;42.830;24.390;2022-07-17T04:48:15;7.75;;;3.95;;
32242;SDS011;18731;42.830;24.390;2022-07-17T04:50:41;6.30;;;4.82;;
32242;SDS011;18731;42.830;24.390;2022-07-17T04:53:07;6.30;;;5.20;;
32242;SDS011;18731;42.830;24.390;2022-07-17T04:55:35;6.93;;;4.07;;
32242;SDS011;18731;42.830;24.390;2022-07-17T04:58:05;10.45;;;5.30;;
32242;SDS011;18731;42.830;24.390;2022-07-17T05:00:31;5.82;;;4.03;;
32242;SDS011;18731;42.830;24.390;2022-07-17T05:02:57;6.90;;;4.25;;
32242;SDS011;18731;42.830;24.390;2022-07-17T05:05:23;6.90;;;4.47;;
32242;SDS011;18731;42.830;24.390;2022-07-17T05:07:48;3.88;;;3.50;;
32242;SDS011;18731;42.830;24.390;2022-07-17T05:10:14;4.32;;;3.92;;
32242;SDS011;18731;42.830;24.390;2022-07-17T05:12:40;8.68;;;3.80;;
32242;SDS011;18731;42.830;24.390;2022-07-17T05:15:06;5.20;;;4.00;;
32242;SDS011;18731;42.830;24.390;2022-07-17T05:17:32;6.95;;;3.55;;
32242;SDS011;18731;42.830;24.390;2022-07-17T05:19:58;12.00;;;4.07;;
32242;SDS011;18731;42.830;24.390;2022-07-17T05:22:24;6.20;;;3.40;;
32242;SDS011;18731;42.830;24.390;2022-07-17T05:24:53;4.25;;;3.80;;
32242;SDS011;18731;42.830;24.390;2022-07-17T05:27:24;8.20;;;3.47;;
32242;SDS011;18731;42.830;24.390;2022-07-17T05:29:50;5.25;;;3.50;;
32242;SDS011;18731;42.830;24.390;2022-07-17T05:32:15;7.18;;;3.03;;
32242;SDS011;18731;42.830;24.390;2022-07-17T05:34:44;5.22;;;3.28;;
32242;SDS011;18731;42.830;24.390;2022-07-17T05:37:10;4.60;;;3.00;;
32242;SDS011;18731;42.830;24.390;2022-07-17T05:39:36;4.28;;;3.40;;
32242;SDS011;18731;42.830;24.390;2022-07-17T05:42:03;5.05;;;3.10;;
32242;SDS011;18731;42.830;24.390;2022-07-17T05:44:32;4.35;;;3.65;;
32242;SDS011;18731;42.830;24.390;2022-07-17T05:46:59;4.05;;;2.83;;
32242;SDS011;18731;42.830;24.390;2022-07-17T05:49:25;6.55;;;3.60;;
32242;SDS011;18731;42.830;24.390;2022-07-17T05:51:51;6.93;;;3.03;;
32242;SDS011;18731;42.830;24.390;2022-07-17T05:54:16;5.82;;;3.42;;
32242;SDS011;18731;42.830;24.390;2022-07-17T05:56:42;4.05;;;2.70;;
32242;SDS011;18731;42.830;24.390;2022-07-17T05:59:08;4.93;;;2.95;;
32242;SDS011;18731;42.830;24.390;2022-07-17T06:01:33;7.32;;;3.33;;
32242;SDS011;18731;42.830;24.390;2022-07-17T06:03:59;4.40;;;3.22;;
32242;SDS011;18731;42.830;24.390;2022-07-17T06:06:25;5.65;;;3.00;;
32242;SDS011;18731;42.830;24.390;2022-07-17T06:08:51;5.63;;;3.00;;
32242;SDS011;18731;42.830;24.390;2022-07-17T06:11:16;5.47;;;2.97;;
32242;SDS011;18731;42.830;24.390;2022-07-17T06:13:42;7.60;;;3.00;;
32242;SDS011;18731;42.830;24.390;2022-07-17T06:16:08;6.47;;;3.05;;
32242;SDS011;18731;42.830;24.390;2022-07-17T06:18:33;9.60;;;3.33;;
32242;SDS011;18731;42.830;24.390;2022-07-17T06:20:59;9.27;;;4.00;;
32242;SDS011;18731;42.830;24.390;2022-07-17T06:23:25;4.22;;;3.42;;
32242;SDS011;18731;42.830;24.390;2022-07-17T06:25:50;8.60;;;3.05;;
32242;SDS011;18731;42.830;24.390;2022-07-17T06:28:16;10.52;;;3.22;;
32242;SDS011;18731;42.830;24.390;2022-07-17T06:30:42;8.73;;;4.10;;
32242;SDS011;18731;42.830;24.390;2022-07-17T06:33:08;7.07;;;3.35;;
32242;SDS011;18731;42.830;24.390;2022-07-17T06:35:34;6.68;;;3.22;;
32242;SDS011;18731;42.830;24.390;2022-07-17T06:37:59;7.13;;;3.05;;
32242;SDS011;18731;42.830;24.390;2022-07-17T06:40:27;5.22;;;2.90;;
32242;SDS011;18731;42.830;24.390;2022-07-17T06:42:53;6.50;;;3.25;;
32242;SDS011;18731;42.830;24.390;2022-07-17T06:45:19;6.82;;;3.25;;
32242;SDS011;18731;42.830;24.390;2022-07-17T06:47:44;9.60;;;3.28;;
32242;SDS011;18731;42.830;24.390;2022-07-17T06:50:10;5.88;;;3.60;;
32242;SDS011;18731;42.830;24.390;2022-07-17T06:52:36;6.05;;;3.30;;
32242;SDS011;18731;42.830;24.390;2022-07-17T06:55:02;13.23;;;3.20;;
32242;SDS011;18731;42.830;24.390;2022-07-17T06:57:28;7.38;;;2.70;;
32242;SDS011;18731;42.830;24.390;2022-07-17T06:59:53;5.28;;;2.83;;
32242;SDS011;18731;42.830;24.390;2022-07-17T07:02:19;4.45;;;2.55;;
32242;SDS011;18731;42.830;24.390;2022-07-17T07:04:45;4.75;;;2.85;;
32242;SDS011;18731;42.830;24.390;2022-07-17T07:07:11;5.93;;;2.60;;
32242;SDS011;18731;42.830;24.390;2022-07-17T07:09:36;6.60;;;3.28;;
32242;SDS011;18731;42.830;24.390;2022-07-17T07:12:02;5.80;;;2.85;;
32242;SDS011;18731;42.830;24.390;2022-07-17T07:14:28;9.13;;;2.88;;
32242;SDS011;18731;42.830;24.390;2022-07-17T07:16:54;4.65;;;2.55;;
32242;SDS011;18731;42.830;24.390;2022-07-17T07:19:20;11.38;;;2.67;;
32242;SDS011;18731;42.830;24.390;2022-07-17T07:21:45;7.32;;;2.60;;
32242;SDS011;18731;42.830;24.390;2022-07-17T07:24:11;5.20;;;3.00;;
32242;SDS011;18731;42.830;24.390;2022-07-17T07:26:37;4.78;;;2.53;;
32242;SDS011;18731;42.830;24.390;2022-07-17T07:29:03;15.88;;;2.75;;
32242;SDS011;18731;42.830;24.390;2022-07-17T07:31:32;5.13;;;2.65;;
32242;SDS011;18731;42.830;24.390;2022-07-17T07:33:58;6.90;;;2.60;;
32242;SDS011;18731;42.830;24.390;2022-07-17T07:36:24;5.15;;;2.58;;
32242;SDS011;18731;42.830;24.390;2022-07-17T07:38:49;4.25;;;2.53;;
32242;SDS011;18731;42.830;24.390;2022-07-17T07:41:15;5.70;;;2.75;;
32242;SDS011;18731;42.830;24.390;2022-07-17T07:43:40;3.72;;;2.45;;
32242;SDS011;18731;42.830;24.390;2022-07-17T07:46:09;4.88;;;2.72;;
32242;SDS011;18731;42.830;24.390;2022-07-17T07:48:35;6.55;;;2.65;;
32242;SDS011;18731;42.830;24.390;2022-07-17T07:51:01;8.95;;;2.50;;
32242;SDS011;18731;42.830;24.390;2022-07-17T07:53:26;12.50;;;3.30;;
32242;SDS011;18731;42.830;24.390;2022-07-17T07:55:52;6.88;;;2.50;;
32242;SDS011;18731;42.830;24.390;2022-07-17T07:58:18;3.72;;;2.60;;
32242;SDS011;18731;42.830;24.390;2022-07-17T08:00:44;6.93;;;2.35;;
32242;SDS011;18731;42.830;24.390;2022-07-17T08:03:11;4.35;;;2.53;;
32242;SDS011;18731;42.830;24.390;2022-07-17T08:05:37;4.85;;;2.30;;
32242;SDS011;18731;42.830;24.390;2022-07-17T08:08:03;4.00;;;2.15;;
32242;SDS011;18731;42.830;24.390;2022-07-17T08:10:33;5.05;;;2.40;;
32242;SDS011;18731;42.830;24.390;2022-07-17T08:12:59;4.40;;;2.50;;
32242;SDS011;18731;42.830;24.390;2022-07-17T08:15:28;6.47;;;2.25;;
32242;SDS011;18731;42.830;24.390;2022-07-17T08:17:54;8.82;;;2.88;;
32242;SDS011;18731;42.830;24.390;2022-07-17T08:20:21;3.53;;;2.42;;
32242;SDS011;18731;42.830;24.390;2022-07-17T08:22:47;7.05;;;2.20;;
32242;SDS011;18731;42.830;24.390;2022-07-17T08:25:14;3.55;;;2.63;;
32242;SDS011;18731;42.830;24.390;2022-07-17T08:27:41;3.65;;;2.50;;
32242;SDS011;18731;42.830;24.390;2022-07-17T08:30:11;3.22;;;2.70;;
32242;SDS011;18731;42.830;24.390;2022-07-17T08:32:39;6.20;;;2.40;;
32242;SDS011;18731;42.830;24.390;2022-07-17T08:35:08;5.75;;;2.45;;
32242;SDS011;18731;42.830;24.390;2022-07-17T08:40:30;3.53;;;2.30;;
32242;SDS011;18731;42.830;24.390;2022-07-17T08:43:00;4.25;;;2.40;;
32242;SDS011;18731;42.830;24.390;2022-07-17T08:45:34;6.68;;;2.30;;
32242;SDS011;18731;42.830;24.390;2022-07-17T08:48:00;5.13;;;2.50;;
32242;SDS011;18731;42.830;24.390;2022-07-17T08:50:33;6.80;;;2.42;;
32242;SDS011;18731;42.830;24.390;2022-07-17T08:53:00;6.50;;;2.78;;
32242;SDS011;18731;42.830;24.390;2022-07-17T08:55:28;2.58;;;2.25;;
32242;SDS011;18731;42.830;24.390;2022-07-17T08:57:57;12.30;;;2.60;;
32242;SDS011;18731;42.830;24.390;2022-07-17T09:00:23;6.65;;;2.55;;
32242;SDS011;18731;42.830;24.390;2022-07-17T09:02:57;4.28;;;2.55;;
32242;SDS011;18731;42.830;24.390;2022-07-17T09:05:31;3.85;;;2.40;;
32242;SDS011;18731;42.830;24.390;2022-07-17T09:07:59;7.00;;;2.70;;
32242;SDS011;18731;42.830;24.390;2022-07-17T09:16:08;4.32;;;2.70;;
32242;SDS011;18731;42.830;24.390;2022-07-17T09:18:47;4.75;;;2.30;;
32242;SDS011;18731;42.830;24.390;2022-07-17T09:21:19;4.90;;;2.42;;
32242;SDS011;18731;42.830;24.390;2022-07-17T09:23:56;6.55;;;2.40;;
32242;SDS011;18731;42.830;24.390;2022-07-17T09:26:24;2.92;;;2.20;;
32242;SDS011;18731;42.830;24.390;2022-07-17T09:28:50;4.38;;;2.45;;
32242;SDS011;18731;42.830;24.390;2022-07-17T09:31:31;9.00;;;2.30;;
32242;SDS011;18731;42.830;24.390;2022-07-17T09:34:01;5.68;;;2.47;;
32242;SDS011;18731;42.830;24.390;2022-07-17T09:36:27;6.05;;;2.30;;
32242;SDS011;18731;42.830;24.390;2022-07-17T09:38:54;5.15;;;2.75;;
32242;SDS011;18731;42.830;24.390;2022-07-17T09:41:22;3.72;;;2.63;;
32242;SDS011;18731;42.830;24.390;2022-07-17T09:43:58;7.90;;;2.47;;
32242;SDS011;18731;42.830;24.390;2022-07-17T09:46:29;6.43;;;2.83;;
32242;SDS011;18731;42.830;24.390;2022-07-17T09:48:57;8.88;;;2.65;;
32242;SDS011;18731;42.830;24.390;2022-07-17T09:53:55;4.28;;;2.35;;
32242;SDS011;18731;42.830;24.390;2022-07-17T09:56:24;5.55;;;2.58;;
32242;SDS011;18731;42.830;24.390;2022-07-17T09:58:52;7.22;;;2.92;;
32242;SDS011;18731;42.830;24.390;2022-07-17T10:01:20;4.25;;;2.22;;
32242;SDS011;18731;42.830;24.390;2022-07-17T10:03:49;4.57;;;2.53;;
32242;SDS011;18731;42.830;24.390;2022-07-17T10:06:16;5.72;;;2.50;;
32242;SDS011;18731;42.830;24.390;2022-07-17T10:08:46;5.38;;;2.47;;
32242;SDS011;18731;42.830;24.390;2022-07-17T10:11:12;5.05;;;2.80;;
32242;SDS011;18731;42.830;24.390;2022-07-17T10:13:41;7.03;;;2.92;;
32242;SDS011;18731;42.830;24.390;2022-07-17T10:16:12;7.55;;;2.72;;
32242;SDS011;18731;42.830;24.390;2022-07-17T10:18:41;5.07;;;2.38;;
32242;SDS011;18731;42.830;24.390;2022-07-17T10:23:34;4.30;;;2.63;;
32242;SDS011;18731;42.830;24.390;2022-07-17T10:26:04;3.88;;;2.42;;
32242;SDS011;18731;42.830;24.390;2022-07-17T10:28:40;7.90;;;2.75;;
32242;SDS011;18731;42.830;24.390;2022-07-17T10:31:09;6.80;;;2.50;;
32242;SDS011;18731;42.830;24.390;2022-07-17T10:36:36;3.50;;;2.20;;
32242;SDS011;18731;42.830;24.390;2022-07-17T10:41:55;3.90;;;2.50;;
32242;SDS011;18731;42.830;24.390;2022-07-17T10:44:26;6.20;;;2.45;;
32242;SDS011;18731;42.830;24.390;2022-07-17T10:46:53;6.15;;;2.30;;
32242;SDS011;18731;42.830;24.390;2022-07-17T10:49:23;7.07;;;2.28;;
32242;SDS011;18731;42.830;24.390;2022-07-17T10:51:50;4.13;;;2.38;;
32242;SDS011;18731;42.830;24.390;2022-07-17T10:54:39;4.95;;;2.60;;
32242;SDS011;18731;42.830;24.390;2022-07-17T10:57:05;7.72;;;2.83;;
32242;SDS011;18731;42.830;24.390;2022-07-17T10:59:31;3.90;;;2.40;;
32242;SDS011;18731;42.830;24.390;2022-07-17T11:01:57;16.52;;;2.88;;
32242;SDS011;18731;42.830;24.390;2022-07-17T11:04:35;4.25;;;2.40;;
32242;SDS011;18731;42.830;24.390;2022-07-17T11:07:05;3.67;;;2.30;;
32242;SDS011;18731;42.830;24.390;2022-07-17T11:09:34;5.82;;;2.50;;
32242;SDS011;18731;42.830;24.390;2022-07-17T11:12:03;6.88;;;2.60;;
32242;SDS011;18731;42.830;24.390;2022-07-17T11:14:28;9.88;;;2.58;;
32242;SDS011;18731;42.830;24.390;2022-07-17T11:16:57;3.13;;;2.58;;
32242;SDS011;18731;42.830;24.390;2022-07-17T11:19:25;9.23;;;2.60;;
32242;SDS011;18731;42.830;24.390;2022-07-17T11:21:53;4.72;;;3.15;;
32242;SDS011;18731;42.830;24.390;2022-07-17T11:24:22;4.20;;;2.50;;
32242;SDS011;18731;42.830;24.390;2022-07-17T11:26:50;4.43;;;2.53;;
32242;SDS011;18731;42.830;24.390;2022-07-17T11:29:19;5.78;;;2.47;;
32242;SDS011;18731;42.830;24.390;2022-07-17T11:31:54;9.13;;;3.00;;
32242;SDS011;18731;42.830;24.390;2022-07-17T11:34:20;5.25;;;2.80;;
32242;SDS011;18731;42.830;24.390;2022-07-17T11:36:50;8.80;;;2.78;;
32242;SDS011;18731;42.830;24.390;2022-07-17T11:39:16;6.57;;;2.63;;
32242;SDS011;18731;42.830;24.390;2022-07-17T11:41:45;6.95;;;2.60;;
32242;SDS011;18731;42.830;24.390;2022-07-17T11:44:15;12.27;;;2.70;;
32242;SDS011;18731;42.830;24.390;2022-07-17T11:46:43;5.13;;;2.50;;
32242;SDS011;18731;42.830;24.390;2022-07-17T11:49:29;4.68;;;2.50;;
32242;SDS011;18731;42.830;24.390;2022-07-17T11:51:59;9.77;;;2.90;;
32242;SDS011;18731;42.830;24.390;2022-07-17T11:57:13;3.78;;;2.90;;
32242;SDS011;18731;42.830;24.390;2022-07-17T11:59:42;4.82;;;2.53;;
32242;SDS011;18731;42.830;24.390;2022-07-17T12:02:21;7.18;;;2.58;;
32242;SDS011;18731;42.830;24.390;2022-07-17T12:04:55;5.18;;;2.42;;
32242;SDS011;18731;42.830;24.390;2022-07-17T12:07:23;3.58;;;2.50;;
32242;SDS011;18731;42.830;24.390;2022-07-17T12:09:50;6.80;;;2.65;;
32242;SDS011;18731;42.830;24.390;2022-07-17T12:12:27;5.55;;;2.30;;
32242;SDS011;18731;42.830;24.390;2022-07-17T12:14:54;5.65;;;2.90;;
32242;SDS011;18731;42.830;24.390;2022-07-17T12:17:36;5.53;;;2.50;;
32242;SDS011;18731;42.830;24.390;2022-07-17T12:20:06;9.20;;;2.83;;
32242;SDS011;18731;42.830;24.390;2022-07-17T12:22:48;6.90;;;2.63;;
32242;SDS011;18731;42.830;24.390;2022-07-17T12:25:24;4.88;;;2.58;;
32242;SDS011;18731;42.830;24.390;2022-07-17T12:27:52;3.67;;;2.53;;
32242;SDS011;18731;42.830;24.390;2022-07-17T12:30:18;4.30;;;2.50;;
32242;SDS011;18731;42.830;24.390;2022-07-17T12:32:45;5.22;;;2.67;;
32242;SDS011;18731;42.830;24.390;2022-07-17T12:35:13;4.05;;;2.53;;
32242;SDS011;18731;42.830;24.390;2022-07-17T12:37:39;3.45;;;2.70;;
32242;SDS011;18731;42.830;24.390;2022-07-17T12:40:06;4.32;;;2.80;;
32242;SDS011;18731;42.830;24.390;2022-07-17T12:42:36;3.72;;;2.72;;
32242;SDS011;18731;42.830;24.390;2022-07-17T12:45:05;3.60;;;2.60;;
32242;SDS011;18731;42.830;24.390;2022-07-17T12:47:31;5.32;;;2.75;;
32242;SDS011;18731;42.830;24.390;2022-07-17T12:49:57;5.03;;;2.53;;
32242;SDS011;18731;42.830;24.390;2022-07-17T12:52:23;6.85;;;2.50;;
32242;SDS011;18731;42.830;24.390;2022-07-17T12:54:48;2.80;;;2.35;;
32242;SDS011;18731;42.830;24.390;2022-07-17T12:57:14;10.65;;;2.72;;
32242;SDS011;18731;42.830;24.390;2022-07-17T12:59:40;6.32;;;2.55;;
32242;SDS011;18731;42.830;24.390;2022-07-17T13:02:05;5.13;;;2.63;;
32242;SDS011;18731;42.830;24.390;2022-07-17T13:04:31;5.45;;;2.88;;
32242;SDS011;18731;42.830;24.390;2022-07-17T13:06:58;3.55;;;2.90;;
32242;SDS011;18731;42.830;24.390;2022-07-17T13:09:26;6.32;;;2.60;;
32242;SDS011;18731;42.830;24.390;2022-07-17T13:11:52;6.00;;;2.80;;
32242;SDS011;18731;42.830;24.390;2022-07-17T13:14:18;4.47;;;2.42;;
32242;SDS011;18731;42.830;24.390;2022-07-17T13:16:43;6.45;;;2.42;;
32242;SDS011;18731;42.830;24.390;2022-07-17T13:19:09;3.30;;;2.30;;
32242;SDS011;18731;42.830;24.390;2022-07-17T13:21:36;7.15;;;3.10;;
32242;SDS011;18731;42.830;24.390;2022-07-17T13:24:02;4.80;;;2.70;;
32242;SDS011;18731;42.830;24.390;2022-07-17T13:26:29;5.13;;;2.70;;
32242;SDS011;18731;42.830;24.390;2022-07-17T13:28:54;6.70;;;2.80;;
32242;SDS011;18731;42.830;24.390;2022-07-17T13:31:20;9.82;;;2.75;;
32242;SDS011;18731;42.830;24.390;2022-07-17T13:33:46;3.60;;;2.90;;
32242;SDS011;18731;42.830;24.390;2022-07-17T13:36:11;4.35;;;2.42;;
32242;SDS011;18731;42.830;24.390;2022-07-17T13:38:37;4.72;;;2.55;;
32242;SDS011;18731;42.830;24.390;2022-07-17T13:41:03;5.47;;;2.47;;
32242;SDS011;18731;42.830;24.390;2022-07-17T13:43:28;5.22;;;2.30;;
32242;SDS011;18731;42.830;24.390;2022-07-17T13:45:54;4.30;;;2.25;;
32242;SDS011;18731;42.830;24.390;2022-07-17T13:48:20;7.47;;;2.22;;
32242;SDS011;18731;42.830;24.390;2022-07-17T13:50:46;4.35;;;2.25;;
32242;SDS011;18731;42.830;24.390;2022-07-17T13:53:12;3.08;;;2.70;;
32242;SDS011;18731;42.830;24.390;2022-07-17T13:55:38;8.70;;;2.58;;
32242;SDS011;18731;42.830;24.390;2022-07-17T13:58:03;8.40;;;2.47;;
32242;SDS011;18731;42.830;24.390;2022-07-17T14:00:30;4.18;;;2.60;;
32242;SDS011;18731;42.830;24.390;2022-07-17T14:02:56;6.82;;;3.15;;
32242;SDS011;18731;42.830;24.390;2022-07-17T14:05:22;4.43;;;2.90;;
32242;SDS011;18731;42.830;24.390;2022-07-17T14:07:48;5.70;;;3.20;;
32242;SDS011;18731;42.830;24.390;2022-07-17T14:10:14;9.85;;;2.65;;
32242;SDS011;18731;42.830;24.390;2022-07-17T14:12:40;3.58;;;2.30;;
32242;SDS011;18731;42.830;24.390;2022-07-17T14:15:06;6.03;;;2.88;;
32242;SDS011;18731;42.830;24.390;2022-07-17T14:17:38;6.05;;;2.95;;
32242;SDS011;18731;42.830;24.390;2022-07-17T14:20:04;11.10;;;3.30;;
32242;SDS011;18731;42.830;24.390;2022-07-17T14:22:34;8.38;;;3.33;;
32242;SDS011;18731;42.830;24.390;2022-07-17T14:25:01;5.13;;;3.10;;
32242;SDS011;18731;42.830;24.390;2022-07-17T14:27:27;5.45;;;2.70;;
32242;SDS011;18731;42.830;24.390;2022-07-17T14:29:53;7.43;;;2.70;;
32242;SDS011;18731;42.830;24.390;2022-07-17T14:32:18;8.23;;;2.90;;
32242;SDS011;18731;42.830;24.390;2022-07-17T14:34:44;8.18;;;3.03;;
32242;SDS011;18731;42.830;24.390;2022-07-17T14:37:10;10.02;;;3.80;;
32242;SDS011;18731;42.830;24.390;2022-07-17T14:39:39;6.13;;;2.83;;
32242;SDS011;18731;42.830;24.390;2022-07-17T14:42:04;7.43;;;2.97;;
32242;SDS011;18731;42.830;24.390;2022-07-17T14:44:30;7.65;;;3.22;;
32242;SDS011;18731;42.830;24.390;2022-07-17T14:47:05;3.75;;;2.50;;
32242;SDS011;18731;42.830;24.390;2022-07-17T14:49:32;6.90;;;2.30;;
32242;SDS011;18731;42.830;24.390;2022-07-17T14:51:58;5.53;;;2.58;;
32242;SDS011;18731;42.830;24.390;2022-07-17T14:54:24;5.18;;;2.33;;
32242;SDS011;18731;42.830;24.390;2022-07-17T14:56:52;4.70;;;2.80;;
32242;SDS011;18731;42.830;24.390;2022-07-17T14:59:18;3.55;;;2.42;;
32242;SDS011;18731;42.830;24.390;2022-07-17T15:01:44;8.40;;;2.40;;
32242;SDS011;18731;42.830;24.390;2022-07-17T15:04:10;5.22;;;2.58;;
32242;SDS011;18731;42.830;24.390;2022-07-17T15:06:39;2.58;;;2.30;;
32242;SDS011;18731;42.830;24.390;2022-07-17T15:09:06;6.43;;;2.90;;
32242;SDS011;18731;42.830;24.390;2022-07-17T15:11:32;5.88;;;3.20;;
32242;SDS011;18731;42.830;24.390;2022-07-17T15:13:58;6.38;;;2.67;;
32242;SDS011;18731;42.830;24.390;2022-07-17T15:16:27;5.55;;;2.60;;
32242;SDS011;18731;42.830;24.390;2022-07-17T15:18:53;3.78;;;2.28;;
32242;SDS011;18731;42.830;24.390;2022-07-17T15:21:19;4.65;;;2.55;;
32242;SDS011;18731;42.830;24.390;2022-07-17T15:23:44;6.90;;;2.40;;
32242;SDS011;18731;42.830;24.390;2022-07-17T15:26:11;7.25;;;2.72;;
32242;SDS011;18731;42.830;24.390;2022-07-17T15:28:37;5.78;;;3.42;;
32242;SDS011;18731;42.830;24.390;2022-07-17T15:31:06;4.30;;;2.72;;
32242;SDS011;18731;42.830;24.390;2022-07-17T15:33:32;6.72;;;2.92;;
32242;SDS011;18731;42.830;24.390;2022-07-17T15:35:58;4.70;;;2.45;;
32242;SDS011;18731;42.830;24.390;2022-07-17T15:38:25;8.27;;;2.53;;
32242;SDS011;18731;42.830;24.390;2022-07-17T15:40:51;6.88;;;2.45;;
32242;SDS011;18731;42.830;24.390;2022-07-17T15:43:20;5.78;;;2.30;;
32242;SDS011;18731;42.830;24.390;2022-07-17T15:45:46;6.97;;;2.40;;
32242;SDS011;18731;42.830;24.390;2022-07-17T15:48:12;6.63;;;2.30;;
32242;SDS011;18731;42.830;24.390;2022-07-17T15:50:40;8.48;;;2.60;;
32242;SDS011;18731;42.830;24.390;2022-07-17T15:53:06;2.72;;;2.13;;
32242;SDS011;18731;42.830;24.390;2022-07-17T15:55:32;5.63;;;2.08;;
32242;SDS011;18731;42.830;24.390;2022-07-17T15:57:57;5.90;;;2.47;;
32242;SDS011;18731;42.830;24.390;2022-07-17T16:00:23;4.57;;;2.30;;
32242;SDS011;18731;42.830;24.390;2022-07-17T16:02:49;11.00;;;2.53;;
32242;SDS011;18731;42.830;24.390;2022-07-17T16:05:15;14.77;;;3.13;;
32242;SDS011;18731;42.830;24.390;2022-07-17T16:07:41;4.72;;;2.38;;
32242;SDS011;18731;42.830;24.390;2022-07-17T16:10:06;4.78;;;2.50;;
32242;SDS011;18731;42.830;24.390;2022-07-17T16:12:32;9.43;;;2.55;;
32242;SDS011;18731;42.830;24.390;2022-07-17T16:14:58;7.50;;;2.50;;
32242;SDS011;18731;42.830;24.390;2022-07-17T16:17:28;5.20;;;2.45;;
32242;SDS011;18731;42.830;24.390;2022-07-17T16:19:55;6.43;;;2.30;;
32242;SDS011;18731;42.830;24.390;2022-07-17T16:22:24;4.97;;;2.40;;
32242;SDS011;18731;42.830;24.390;2022-07-17T16:24:53;5.07;;;2.22;;
32242;SDS011;18731;42.830;24.390;2022-07-17T16:27:18;5.88;;;2.22;;
32242;SDS011;18731;42.830;24.390;2022-07-17T16:29:45;8.73;;;2.10;;
32242;SDS011;18731;42.830;24.390;2022-07-17T16:32:10;6.00;;;2.90;;
32242;SDS011;18731;42.830;24.390;2022-07-17T16:34:36;6.10;;;2.05;;
32242;SDS011;18731;42.830;24.390;2022-07-17T16:37:02;7.30;;;2.30;;
32242;SDS011;18731;42.830;24.390;2022-07-17T16:39:28;5.75;;;2.30;;
32242;SDS011;18731;42.830;24.390;2022-07-17T16:41:54;7.05;;;2.20;;
32242;SDS011;18731;42.830;24.390;2022-07-17T16:44:19;8.50;;;2.53;;
32242;SDS011;18731;42.830;24.390;2022-07-17T16:46:45;4.63;;;2.00;;
32242;SDS011;18731;42.830;24.390;2022-07-17T16:49:11;5.63;;;2.15;;
32242;SDS011;18731;42.830;24.390;2022-07-17T16:51:37;3.97;;;2.33;;
32242;SDS011;18731;42.830;24.390;2022-07-17T16:54:02;5.43;;;2.13;;
32242;SDS011;18731;42.830;24.390;2022-07-17T16:56:28;4.72;;;2.25;;
32242;SDS011;18731;42.830;24.390;2022-07-17T16:58:54;12.30;;;2.55;;
32242;SDS011;18731;42.830;24.390;2022-07-17T17:01:19;9.80;;;2.60;;
32242;SDS011;18731;42.830;24.390;2022-07-17T17:03:45;8.93;;;2.30;;
32242;SDS011;18731;42.830;24.390;2022-07-17T17:06:12;3.05;;;2.25;;
32242;SDS011;18731;42.830;24.390;2022-07-17T17:08:38;8.88;;;2.10;;
32242;SDS011;18731;42.830;24.390;2022-07-17T17:11:04;6.03;;;2.42;;
32242;SDS011;18731;42.830;24.390;2022-07-17T17:13:30;4.53;;;2.20;;
32242;SDS011;18731;42.830;24.390;2022-07-17T17:15:55;8.63;;;2.42;;
32242;SDS011;18731;42.830;24.390;2022-07-17T17:18:21;7.85;;;2.58;;
32242;SDS011;18731;42.830;24.390;2022-07-17T17:20:47;7.38;;;2.70;;
32242;SDS011;18731;42.830;24.390;2022-07-17T17:23:14;7.47;;;2.33;;
32242;SDS011;18731;42.830;24.390;2022-07-17T17:25:41;4.43;;;2.22;;
32242;SDS011;18731;42.830;24.390;2022-07-17T17:28:09;5.43;;;2.25;;
32242;SDS011;18731;42.830;24.390;2022-07-17T17:30:35;3.53;;;2.20;;
32242;SDS011;18731;42.830;24.390;2022-07-17T17:33:01;3.78;;;2.30;;
32242;SDS011;18731;42.830;24.390;2022-07-17T17:35:27;6.13;;;2.10;;
32242;SDS011;18731;42.830;24.390;2022-07-17T17:37:53;4.85;;;2.35;;
32242;SDS011;18731;42.830;24.390;2022-07-17T17:40:19;7.10;;;2.30;;
32242;SDS011;18731;42.830;24.390;2022-07-17T17:42:45;4.90;;;2.33;;
32242;SDS011;18731;42.830;24.390;2022-07-17T17:45:10;6.13;;;2.50;;
32242;SDS011;18731;42.830;24.390;2022-07-17T17:47:36;9.05;;;2.55;;
32242;SDS011;18731;42.830;24.390;2022-07-17T17:50:02;4.25;;;2.28;;
32242;SDS011;18731;42.830;24.390;2022-07-17T17:52:28;8.40;;;2.50;;
32242;SDS011;18731;42.830;24.390;2022-07-17T17:54:54;6.95;;;2.75;;